createdAt,value
2018-07-14T00:02:20.876Z,17.43
2018-07-14T00:04:50.957Z,17.40
2018-07-14T00:07:21.152Z,17.41
2018-07-14T00:09:51.301Z,17.39
2018-07-14T00:12:21.434Z,17.39
2018-07-14T00:14:51.514Z,17.33
2018-07-14T00:17:21.286Z,17.29
2018-07-14T00:19:51.359Z,17.29
2018-07-14T00:22:21.500Z,17.32
2018-07-14T00:24:51.579Z,17.32
2018-07-14T00:27:21.714Z,17.26
2018-07-14T00:29:51.780Z,17.27
2018-07-14T00:32:21.968Z,17.25
2018-07-14T00:34:52.067Z,17.23
2018-07-14T00:37:22.246Z,17.23
2018-07-14T00:39:52.343Z,17.19
2018-07-14T00:42:22.471Z,17.17
2018-07-14T00:44:52.636Z,17.20
2018-07-14T00:47:22.778Z,17.17
2018-07-14T00:49:52.878Z,17.13
2018-07-14T00:52:22.994Z,17.12
2018-07-14T00:54:53.097Z,17.08
2018-07-14T00:57:23.213Z,17.03
2018-07-14T00:59:53.392Z,16.98
2018-07-14T01:02:23.478Z,16.97
2018-07-14T01:04:53.614Z,16.93
2018-07-14T01:07:23.787Z,16.91
2018-07-14T01:09:53.894Z,16.88
2018-07-14T01:12:39.716Z,16.89
2018-07-14T01:15:10.080Z,16.92
2018-07-14T01:17:40.695Z,16.91
2018-07-14T01:20:10.856Z,16.91
2018-07-14T01:22:41.052Z,16.85
2018-07-14T01:25:11.163Z,16.84
2018-07-14T01:27:41.531Z,16.83
2018-07-14T01:30:11.966Z,16.79
2018-07-14T01:32:42.136Z,16.85
2018-07-14T01:35:12.314Z,16.83
2018-07-14T01:37:42.576Z,16.79
2018-07-14T01:40:12.680Z,16.77
2018-07-14T01:42:42.760Z,16.76
2018-07-14T01:45:12.904Z,16.78
2018-07-14T01:47:42.946Z,16.78
2018-07-14T01:50:13.022Z,16.75
2018-07-14T01:52:43.142Z,16.76
2018-07-14T01:55:13.276Z,16.77
2018-07-14T01:57:43.374Z,16.76
2018-07-14T02:00:13.501Z,16.70
2018-07-14T02:02:43.654Z,16.74
2018-07-14T02:05:15.028Z,16.72
2018-07-14T02:07:45.205Z,16.72
2018-07-14T02:10:15.281Z,16.72
2018-07-14T02:12:44.937Z,16.68
2018-07-14T02:15:15.041Z,16.67
2018-07-14T02:17:45.158Z,16.67
2018-07-14T02:20:15.317Z,16.69
2018-07-14T02:22:45.419Z,16.75
2018-07-14T02:25:15.537Z,16.77
2018-07-14T02:27:45.613Z,16.71
2018-07-14T02:30:15.711Z,16.77
2018-07-14T02:32:45.797Z,16.83
2018-07-14T02:35:15.950Z,16.88
2018-07-14T02:37:46.025Z,16.87
2018-07-14T02:40:16.134Z,16.88
2018-07-14T02:42:46.203Z,16.93
2018-07-14T02:45:16.333Z,16.94
2018-07-14T02:47:46.425Z,16.97
2018-07-14T02:50:16.578Z,16.96
2018-07-14T02:52:46.655Z,17.00
2018-07-14T02:55:16.767Z,17.00
2018-07-14T02:57:46.890Z,17.01
2018-07-14T03:00:17.023Z,17.03
2018-07-14T03:02:47.112Z,17.03
2018-07-14T03:05:17.207Z,17.02
2018-07-14T03:07:47.355Z,17.00
2018-07-14T03:10:17.434Z,16.99
2018-07-14T03:12:47.494Z,16.98
2018-07-14T03:15:17.613Z,16.97
2018-07-14T03:17:47.679Z,16.99
2018-07-14T03:20:17.851Z,16.98
2018-07-14T03:22:47.962Z,16.97
2018-07-14T03:25:18.059Z,17.00
2018-07-14T03:27:47.688Z,17.04
2018-07-14T03:30:17.834Z,17.05
2018-07-14T03:32:47.956Z,17.05
2018-07-14T03:35:18.163Z,17.00
2018-07-14T03:37:48.306Z,17.02
2018-07-14T03:40:18.415Z,17.08
2018-07-14T03:42:48.569Z,17.11
2018-07-14T03:45:18.694Z,17.10
2018-07-14T03:47:48.791Z,17.09
2018-07-14T03:50:18.887Z,17.04
2018-07-14T03:52:48.977Z,17.01
2018-07-14T03:55:19.096Z,16.98
2018-07-14T03:57:49.213Z,16.97
2018-07-14T04:00:19.336Z,16.91
2018-07-14T04:02:49.385Z,16.84
2018-07-14T04:05:19.480Z,16.83
2018-07-14T04:07:49.557Z,16.84
2018-07-14T04:10:19.657Z,16.82
2018-07-14T04:12:49.736Z,16.83
2018-07-14T04:15:19.941Z,16.80
2018-07-14T04:17:57.540Z,16.79
2018-07-14T04:20:27.695Z,16.74
2018-07-14T04:22:57.780Z,16.72
2018-07-14T04:25:27.860Z,16.68
2018-07-14T04:27:58.389Z,16.64
2018-07-14T04:30:28.493Z,16.59
2018-07-14T04:32:58.569Z,16.56
2018-07-14T04:35:28.726Z,16.60
2018-07-14T04:37:58.787Z,16.65
2018-07-14T04:40:29.535Z,16.67
2018-07-14T04:42:59.619Z,16.66
2018-07-14T04:45:29.754Z,16.65
2018-07-14T04:47:59.866Z,16.69
2018-07-14T04:50:29.956Z,16.68
2018-07-14T04:53:00.112Z,16.73
2018-07-14T04:55:31.178Z,16.80
2018-07-14T04:58:01.239Z,16.80
2018-07-14T05:00:31.367Z,16.81
2018-07-14T05:03:01.458Z,16.82
2018-07-14T05:05:31.530Z,16.86
2018-07-14T05:08:01.855Z,16.94
2018-07-14T05:10:31.942Z,17.02
2018-07-14T05:13:02.064Z,17.06
2018-07-14T05:15:32.157Z,17.21
2018-07-14T05:18:02.264Z,17.14
2018-07-14T05:20:32.345Z,17.47
2018-07-14T05:23:02.464Z,17.66
2018-07-14T05:25:32.588Z,17.81
2018-07-14T05:28:02.669Z,18.01
2018-07-14T05:30:32.741Z,18.18
2018-07-14T05:33:02.862Z,18.35
2018-07-14T05:35:32.930Z,18.52
2018-07-14T05:38:03.046Z,18.75
2018-07-14T05:40:33.114Z,18.93
2018-07-14T05:43:03.239Z,19.21
2018-07-14T05:45:33.306Z,19.54
2018-07-14T05:48:03.492Z,19.78
2018-07-14T05:50:33.552Z,20.12
2018-07-14T05:53:03.684Z,20.39
2018-07-14T05:55:33.797Z,20.55
2018-07-14T05:58:03.939Z,20.77
2018-07-14T06:00:34.023Z,21.04
2018-07-14T06:03:04.207Z,21.07
2018-07-14T06:05:34.393Z,21.20
2018-07-14T06:08:04.659Z,21.33
2018-07-14T06:10:34.700Z,21.39
2018-07-14T06:13:04.876Z,21.37
2018-07-14T06:15:34.962Z,21.43
2018-07-14T06:18:05.115Z,21.39
2018-07-14T06:20:35.187Z,21.43
2018-07-14T06:23:05.427Z,21.74
2018-07-14T06:25:35.473Z,21.93
2018-07-14T06:28:05.641Z,21.91
2018-07-14T06:30:35.370Z,21.93
2018-07-14T06:33:05.549Z,22.01
2018-07-14T06:35:35.661Z,22.28
2018-07-14T06:38:05.899Z,22.28
2018-07-14T06:40:36.024Z,22.30
2018-07-14T06:43:06.334Z,22.44
2018-07-14T06:45:36.449Z,22.53
2018-07-14T06:48:06.694Z,22.60
2018-07-14T06:50:36.704Z,22.50
2018-07-14T06:53:06.892Z,22.50
2018-07-14T06:55:37.017Z,22.59
2018-07-14T06:58:07.245Z,22.87
2018-07-14T07:00:37.364Z,22.93
2018-07-14T07:03:07.560Z,22.95
2018-07-14T07:05:37.639Z,22.96
2018-07-14T07:08:08.253Z,23.04
2018-07-14T07:10:38.294Z,22.97
2018-07-14T07:13:08.505Z,23.17
2018-07-14T07:15:38.595Z,23.24
2018-07-14T07:18:08.798Z,23.34
2018-07-14T07:20:40.149Z,23.46
2018-07-14T07:23:11.611Z,23.59
2018-07-14T07:25:42.490Z,23.42
2018-07-14T07:28:12.622Z,23.54
2018-07-14T07:30:42.731Z,23.60
2018-07-14T07:33:12.910Z,23.78
2018-07-14T07:35:43.107Z,24.06
2018-07-14T07:38:13.218Z,23.96
2018-07-14T07:40:43.617Z,24.05
2018-07-14T07:43:13.771Z,24.18
2018-07-14T07:45:44.309Z,24.40
2018-07-14T07:48:14.449Z,24.51
2018-07-14T07:50:44.441Z,24.75
2018-07-14T07:53:14.500Z,24.76
2018-07-14T07:55:44.708Z,24.85
2018-07-14T07:58:14.858Z,24.97
2018-07-14T08:00:44.872Z,25.28
2018-07-14T08:03:15.017Z,25.21
2018-07-14T08:05:45.401Z,25.29
2018-07-14T08:08:15.562Z,25.33
2018-07-14T08:10:45.655Z,25.44
2018-07-14T08:13:15.765Z,25.65
2018-07-14T08:15:45.857Z,25.86
2018-07-14T08:18:15.871Z,25.92
2018-07-14T08:20:45.967Z,26.07
2018-07-14T08:23:16.018Z,26.20
2018-07-14T08:25:46.249Z,26.23
2018-07-14T08:28:15.888Z,26.32
2018-07-14T08:30:45.984Z,26.34
2018-07-14T08:33:16.119Z,26.54
2018-07-14T08:35:46.235Z,26.51
2018-07-14T08:38:15.871Z,26.24
2018-07-14T08:40:46.059Z,26.23
2018-07-14T08:43:16.105Z,26.38
2018-07-14T08:45:46.165Z,26.49
2018-07-14T08:48:16.239Z,26.50
2018-07-14T08:50:46.291Z,26.41
2018-07-14T08:53:16.366Z,26.48
2018-07-14T08:55:46.452Z,26.71
2018-07-14T08:58:16.561Z,26.61
2018-07-14T09:00:46.619Z,26.78
2018-07-14T09:03:16.636Z,26.95
2018-07-14T09:05:46.709Z,26.82
2018-07-14T09:08:16.813Z,26.95
2018-07-14T09:10:46.874Z,26.62
2018-07-14T09:13:16.882Z,26.88
2018-07-14T09:15:46.911Z,27.03
2018-07-14T09:18:16.935Z,27.12
2018-07-14T09:20:47.118Z,26.81
2018-07-14T09:23:17.188Z,26.99
2018-07-14T09:25:47.582Z,27.14
2018-07-14T09:28:18.237Z,27.28
2018-07-14T09:30:48.303Z,27.22
2018-07-14T09:33:18.362Z,26.97
2018-07-14T09:35:48.407Z,27.09
2018-07-14T09:38:18.405Z,27.16
2018-07-14T09:40:49.942Z,27.15
2018-07-14T09:43:20.027Z,27.45
2018-07-14T09:45:50.093Z,27.47
2018-07-14T09:48:20.132Z,27.52
2018-07-14T09:50:50.182Z,27.59
2018-07-14T09:53:20.227Z,27.34
2018-07-14T09:55:51.275Z,27.54
2018-07-14T09:58:21.353Z,27.60
2018-07-14T10:00:56.517Z,27.74
2018-07-14T10:03:26.588Z,27.81
2018-07-14T10:05:56.674Z,27.90
2018-07-14T10:08:26.756Z,27.99
2018-07-14T10:10:56.832Z,28.14
2018-07-14T10:13:27.050Z,28.03
2018-07-14T10:15:57.227Z,27.89
2018-07-14T10:18:27.283Z,28.04
2018-07-14T10:20:57.374Z,28.17
2018-07-14T10:23:27.421Z,28.09
2018-07-14T10:25:57.586Z,28.11
2018-07-14T10:28:27.538Z,27.96
2018-07-14T10:30:57.576Z,28.11
2018-07-14T10:33:27.675Z,28.26
2018-07-14T10:35:57.739Z,28.31
2018-07-14T10:38:27.755Z,28.61
2018-07-14T10:40:57.794Z,28.59
2018-07-14T10:43:27.793Z,28.55
2018-07-14T10:45:57.839Z,28.55
2018-07-14T10:48:27.886Z,28.47
2018-07-14T10:50:57.954Z,28.53
2018-07-14T10:53:28.084Z,28.44
2018-07-14T10:55:58.177Z,28.46
2018-07-14T10:58:28.168Z,28.45
2018-07-14T11:00:58.246Z,28.35
2018-07-14T11:03:28.318Z,28.14
2018-07-14T11:05:58.387Z,27.90
2018-07-14T11:08:28.468Z,27.87
2018-07-14T11:10:58.523Z,27.86
2018-07-14T11:13:28.592Z,27.69
2018-07-14T11:15:58.646Z,27.88
2018-07-14T11:18:28.752Z,28.06
2018-07-14T11:20:58.812Z,27.64
2018-07-14T11:23:28.882Z,27.81
2018-07-14T11:25:59.105Z,27.27
2018-07-14T11:28:29.160Z,27.44
2018-07-14T11:30:59.228Z,27.55
2018-07-14T11:33:29.483Z,27.56
2018-07-14T11:35:59.591Z,27.70
2018-07-14T11:38:29.270Z,27.99
2018-07-14T11:40:59.344Z,27.96
2018-07-14T11:43:29.643Z,28.10
2018-07-14T11:45:59.679Z,28.16
2018-07-14T11:48:30.271Z,28.08
2018-07-14T11:51:00.374Z,28.43
2018-07-14T11:53:30.489Z,28.52
2018-07-14T11:56:00.567Z,28.50
2018-07-14T11:58:30.631Z,28.55
2018-07-14T12:01:00.740Z,28.69
2018-07-14T12:03:30.840Z,28.84
2018-07-14T12:06:00.959Z,28.92
2018-07-14T12:08:31.053Z,28.72
2018-07-14T12:11:01.154Z,28.76
2018-07-14T12:13:31.364Z,28.71
2018-07-14T12:16:01.396Z,28.61
2018-07-14T12:18:31.456Z,28.70
2018-07-14T12:21:01.630Z,28.85
2018-07-14T12:23:31.720Z,28.80
2018-07-14T12:26:01.752Z,28.85
2018-07-14T12:28:32.021Z,28.93
2018-07-14T12:31:02.108Z,28.74
2018-07-14T12:33:32.239Z,28.80
2018-07-14T12:36:02.468Z,28.77
2018-07-14T12:38:32.554Z,28.89
2018-07-14T12:41:02.607Z,28.96
2018-07-14T12:43:32.730Z,28.88
2018-07-14T12:46:02.851Z,29.00
2018-07-14T12:48:32.937Z,29.12
2018-07-14T12:51:03.011Z,29.18
2018-07-14T12:53:33.422Z,29.31
2018-07-14T12:56:03.264Z,29.45
2018-07-14T12:58:33.348Z,29.35
2018-07-14T13:01:03.650Z,29.34
2018-07-14T13:03:33.741Z,29.43
2018-07-14T13:06:03.775Z,29.53
2018-07-14T13:08:33.810Z,29.45
2018-07-14T13:11:03.842Z,29.38
2018-07-14T13:13:33.986Z,29.45
2018-07-14T13:16:04.092Z,29.35
2018-07-14T13:18:34.191Z,29.61
2018-07-14T13:21:04.403Z,29.67
2018-07-14T13:23:34.601Z,29.78
2018-07-14T13:26:04.747Z,29.88
2018-07-14T13:28:34.956Z,29.87
2018-07-14T13:31:05.120Z,29.99
2018-07-14T13:33:35.206Z,30.06
2018-07-14T13:36:05.259Z,30.12
2018-07-14T13:38:35.347Z,30.05
2018-07-14T13:41:05.426Z,30.06
2018-07-14T13:43:35.505Z,30.20
2018-07-14T13:46:05.624Z,30.07
2018-07-14T13:48:35.943Z,30.28
2018-07-14T13:51:06.132Z,30.49
2018-07-14T13:53:36.277Z,30.51
2018-07-14T13:56:06.391Z,30.63
2018-07-14T13:58:36.485Z,30.49
2018-07-14T14:01:06.546Z,30.37
2018-07-14T14:03:36.570Z,30.23
2018-07-14T14:06:06.580Z,30.03
2018-07-14T14:08:36.689Z,30.00
2018-07-14T14:11:06.781Z,30.20
2018-07-14T14:13:36.951Z,30.06
2018-07-14T14:16:07.650Z,30.07
2018-07-14T14:18:37.704Z,30.09
2018-07-14T14:21:08.065Z,30.01
2018-07-14T14:23:38.069Z,30.07
2018-07-14T14:26:07.720Z,30.01
2018-07-14T14:28:37.874Z,30.07
2018-07-14T14:31:08.232Z,30.00
2018-07-14T14:33:38.420Z,29.84
2018-07-14T14:36:08.459Z,29.72
2018-07-14T14:38:38.440Z,29.55
2018-07-14T14:41:09.161Z,29.32
2018-07-14T14:43:39.248Z,29.34
2018-07-14T14:46:09.370Z,29.27
2018-07-14T14:48:39.408Z,29.21
2018-07-14T14:51:09.500Z,29.16
2018-07-14T14:53:39.571Z,29.03
2018-07-14T14:56:09.812Z,28.93
2018-07-14T14:58:39.789Z,28.84
2018-07-14T15:01:09.861Z,28.75
2018-07-14T15:03:39.938Z,28.65
2018-07-14T15:06:10.117Z,28.46
2018-07-14T15:08:40.193Z,28.27
2018-07-14T15:11:10.260Z,28.21
2018-07-14T15:13:40.315Z,28.14
2018-07-14T15:16:10.041Z,28.00
2018-07-14T15:18:40.117Z,27.98
2018-07-14T15:21:10.192Z,27.89
2018-07-14T15:23:40.260Z,27.80
2018-07-14T15:26:10.315Z,27.77
2018-07-14T15:28:40.371Z,27.74
2018-07-14T15:31:10.477Z,27.76
2018-07-14T15:33:40.621Z,27.70
2018-07-14T15:36:10.767Z,27.70
2018-07-14T15:38:40.821Z,27.68
2018-07-14T15:41:10.907Z,27.56
2018-07-14T15:43:41.276Z,27.54
2018-07-14T15:46:11.430Z,27.51
2018-07-14T15:48:41.541Z,27.43
2018-07-14T15:51:11.632Z,27.48
2018-07-14T15:53:41.691Z,27.40
2018-07-14T15:56:11.817Z,27.45
2018-07-14T15:58:41.901Z,27.41
2018-07-14T16:01:12.010Z,27.35
2018-07-14T16:03:42.038Z,27.32
2018-07-14T16:06:12.193Z,27.36
2018-07-14T16:08:41.872Z,27.37
2018-07-14T16:11:12.010Z,27.30
2018-07-14T16:13:41.706Z,27.30
2018-07-14T16:16:11.984Z,27.18
2018-07-14T16:18:42.431Z,27.14
2018-07-14T16:21:13.445Z,27.15
2018-07-14T16:23:43.658Z,27.10
2018-07-14T16:26:13.845Z,27.07
2018-07-14T16:28:43.953Z,27.13
2018-07-14T16:31:14.152Z,27.14
2018-07-14T16:33:45.041Z,27.21
2018-07-14T16:36:15.248Z,27.27
2018-07-14T16:38:45.378Z,27.18
2018-07-14T16:41:15.646Z,27.31
2018-07-14T16:43:45.782Z,27.33
2018-07-14T16:46:15.989Z,27.31
2018-07-14T16:48:46.139Z,27.35
2018-07-14T16:51:16.368Z,27.24
2018-07-14T16:53:46.536Z,27.17
2018-07-14T16:56:16.853Z,27.00
2018-07-14T16:58:47.066Z,26.91
2018-07-14T17:01:17.208Z,26.88
2018-07-14T17:03:47.348Z,26.90
2018-07-14T17:06:17.546Z,26.70
2018-07-14T17:08:47.704Z,26.85
2018-07-14T17:11:17.912Z,26.76
2018-07-14T17:13:48.076Z,26.76
2018-07-14T17:16:18.278Z,26.74
2018-07-14T17:18:48.453Z,26.73
2018-07-14T17:21:19.353Z,26.70
2018-07-14T17:23:49.439Z,26.69
2018-07-14T17:26:19.598Z,26.56
2018-07-14T17:28:49.738Z,26.63
2018-07-14T17:31:19.897Z,26.58
2018-07-14T17:33:50.007Z,26.68
2018-07-14T17:36:20.253Z,26.60
2018-07-14T17:38:50.876Z,26.47
2018-07-14T17:41:21.228Z,26.61
2018-07-14T17:43:51.535Z,26.77
2018-07-14T17:46:22.195Z,26.76
2018-07-14T17:48:52.308Z,26.77
2018-07-14T17:51:22.539Z,26.68
2018-07-14T17:53:52.575Z,26.57
2018-07-14T17:56:22.744Z,26.48
2018-07-14T17:58:52.867Z,26.42
2018-07-14T18:01:23.062Z,26.43
2018-07-14T18:03:53.163Z,26.47
2018-07-14T18:06:23.267Z,26.40
2018-07-14T18:08:53.393Z,26.31
2018-07-14T18:11:23.511Z,26.26
2018-07-14T18:13:53.615Z,26.26
2018-07-14T18:16:23.800Z,26.26
2018-07-14T18:18:53.843Z,26.25
2018-07-14T18:21:23.507Z,26.23
2018-07-14T18:23:53.582Z,26.15
2018-07-14T18:26:23.682Z,26.09
2018-07-14T18:28:53.796Z,26.02
2018-07-14T18:31:23.868Z,25.94
2018-07-14T18:33:54.006Z,25.88
2018-07-14T18:36:24.169Z,25.78
2018-07-14T18:38:54.308Z,25.67
2018-07-14T18:41:24.491Z,25.55
2018-07-14T18:43:54.721Z,25.42
2018-07-14T18:46:24.876Z,25.34
2018-07-14T18:48:54.982Z,25.06
2018-07-14T18:51:25.112Z,25.08
2018-07-14T18:53:55.440Z,25.00
2018-07-14T18:56:25.581Z,24.85
2018-07-14T18:58:56.074Z,24.71
2018-07-14T19:01:26.170Z,24.59
2018-07-14T19:03:56.270Z,24.47
2018-07-14T19:06:26.845Z,24.37
2018-07-14T19:08:56.977Z,24.18
2018-07-14T19:11:27.340Z,24.08
2018-07-14T19:13:57.503Z,24.01
2018-07-14T19:16:27.654Z,23.95
2018-07-14T19:18:57.776Z,23.83
2018-07-14T19:21:27.824Z,23.57
2018-07-14T19:23:57.930Z,23.48
2018-07-14T19:26:28.183Z,23.42
2018-07-14T19:28:57.777Z,23.32
2018-07-14T19:31:27.924Z,23.28
2018-07-14T19:33:58.377Z,23.28
2018-07-14T19:36:28.500Z,23.24
2018-07-14T19:38:58.592Z,23.17
2018-07-14T19:41:28.241Z,23.08
2018-07-14T19:43:58.331Z,22.91
2018-07-14T19:46:28.417Z,22.77
2018-07-14T19:48:58.577Z,22.69
2018-07-14T19:51:28.697Z,22.55
2018-07-14T19:53:59.069Z,22.44
2018-07-14T19:56:29.140Z,22.32
2018-07-14T19:58:59.238Z,22.21
2018-07-14T20:01:29.339Z,22.13
2018-07-14T20:03:59.472Z,22.00
2018-07-14T20:06:29.587Z,21.93
2018-07-14T20:08:59.795Z,21.81
2018-07-14T20:11:29.897Z,21.73
2018-07-14T20:14:00.032Z,21.68
2018-07-14T20:16:30.227Z,21.64
2018-07-14T20:19:00.343Z,21.54
2018-07-14T20:21:30.421Z,21.51
2018-07-14T20:24:00.515Z,21.47
2018-07-14T20:26:30.173Z,21.32
2018-07-14T20:29:00.250Z,21.22
2018-07-14T20:31:30.324Z,21.18
2018-07-14T20:34:00.938Z,21.15
2018-07-14T20:36:31.164Z,21.12
2018-07-14T20:39:01.265Z,21.01
2018-07-14T20:41:31.447Z,20.97
2018-07-14T20:44:01.455Z,20.91
2018-07-14T20:46:31.510Z,20.82
2018-07-14T20:49:01.420Z,20.75
2018-07-14T20:51:31.525Z,20.75
2018-07-14T20:54:01.576Z,20.72
2018-07-14T20:56:31.668Z,20.68
2018-07-14T20:59:01.827Z,20.67
2018-07-14T21:01:31.462Z,20.55
2018-07-14T21:04:01.580Z,20.55
2018-07-14T21:06:32.637Z,20.51
2018-07-14T21:09:02.749Z,20.46
2018-07-14T21:11:32.829Z,20.44
2018-07-14T21:14:03.803Z,20.36
2018-07-14T21:16:33.911Z,20.34
2018-07-14T21:19:04.358Z,20.29
2018-07-14T21:21:34.449Z,20.29
2018-07-14T21:24:04.539Z,20.29
2018-07-14T21:26:34.604Z,20.18
2018-07-14T21:29:04.368Z,20.13
2018-07-14T21:31:34.425Z,20.09
2018-07-14T21:34:04.549Z,20.07
2018-07-14T21:36:34.612Z,20.06
2018-07-14T21:39:06.096Z,19.98
2018-07-14T21:41:36.464Z,19.96
2018-07-14T21:44:06.561Z,19.87
2018-07-14T21:46:36.556Z,19.85
2018-07-14T21:49:06.740Z,19.80
2018-07-14T21:51:36.864Z,19.73
2018-07-14T21:54:06.553Z,19.65
2018-07-14T21:56:36.618Z,19.60
2018-07-14T21:59:06.876Z,19.58
2018-07-14T22:01:42.266Z,19.56
2018-07-14T22:04:12.329Z,19.52
2018-07-14T22:06:42.436Z,19.50
2018-07-14T22:09:12.949Z,19.46
2018-07-14T22:11:42.836Z,19.42
2018-07-14T22:14:13.076Z,19.39
2018-07-14T22:16:43.204Z,19.37
2018-07-14T22:19:14.164Z,19.32
2018-07-14T22:21:44.339Z,19.23
2018-07-14T22:24:14.593Z,19.23
2018-07-14T22:26:44.670Z,19.20
2018-07-14T22:29:14.750Z,19.17
2018-07-14T22:31:44.429Z,19.15
2018-07-14T22:34:14.511Z,19.09
2018-07-14T22:36:44.604Z,19.08
2018-07-14T22:39:14.773Z,19.08
2018-07-14T22:41:48.586Z,18.95
2018-07-14T22:44:19.810Z,18.91
2018-07-14T22:46:49.933Z,18.86
2018-07-14T22:49:20.037Z,18.80
2018-07-14T22:51:50.784Z,18.76
2018-07-14T22:54:20.513Z,18.74
2018-07-14T22:56:51.299Z,18.72
2018-07-14T22:59:21.434Z,18.69
2018-07-14T23:01:51.528Z,18.63
2018-07-14T23:04:21.609Z,18.57
2018-07-14T23:06:51.818Z,18.55
2018-07-14T23:09:22.493Z,18.52
2018-07-14T23:11:52.600Z,18.46
2018-07-14T23:14:22.664Z,18.42
2018-07-14T23:16:52.805Z,18.34
2018-07-14T23:19:22.863Z,18.30
2018-07-14T23:21:52.953Z,18.26
2018-07-14T23:24:22.999Z,18.22
2018-07-14T23:26:53.075Z,18.18
2018-07-14T23:29:23.165Z,18.15
2018-07-14T23:31:53.297Z,18.09
2018-07-14T23:34:24.017Z,18.00
2018-07-14T23:36:54.231Z,17.98
2018-07-14T23:39:24.255Z,17.96
2018-07-14T23:41:54.368Z,17.91
2018-07-14T23:44:24.676Z,17.87
2018-07-14T23:46:54.803Z,17.82
2018-07-14T23:49:24.891Z,17.78
2018-07-14T23:51:55.091Z,17.77
2018-07-14T23:54:25.280Z,17.73
2018-07-14T23:56:55.751Z,17.70
2018-07-14T23:59:25.812Z,17.74
